Time;durP1;ratioP1;P1;durP2;ratioP2;P2;SDS_P1;SDS_P2;PMS_P1;PMS_P2;Temp;Humidity;BMP_temperature;BMP_pressure;BME280_temperature;BME280_humidity;BME280_pressure;Samples;Min_cycle;Max_cycle;Signal;HPM_P1;HPM_P2
2022/09/17 00:00:11;;;;;;;6.97;2.47;;;12.00;97.20;;;;;;5065313;28;20446;-68
2022/09/17 00:02:38;;;;;;;8.23;2.30;;;12.00;97.40;;;;;;5065234;28;20477;-67
2022/09/17 00:05:06;;;;;;;8.00;2.93;;;12.00;97.40;;;;;;5065211;28;20439;-68
2022/09/17 00:07:33;;;;;;;4.50;2.33;;;12.00;97.60;;;;;;5064522;28;20456;-67
2022/09/17 00:09:59;;;;;;;5.83;2.60;;;12.00;97.40;;;;;;5064459;28;20449;-68
2022/09/17 00:12:26;;;;;;;11.80;2.83;;;12.00;97.50;;;;;;5064223;28;20475;-67
2022/09/17 00:14:53;;;;;;;6.73;2.37;;;12.00;97.50;;;;;;5064138;28;20859;-68
2022/09/17 00:17:21;;;;;;;6.33;2.77;;;12.00;97.50;;;;;;5064466;28;20460;-67
2022/09/17 00:19:48;;;;;;;7.93;2.87;;;12.00;97.50;;;;;;5064585;28;20459;-68
2022/09/17 00:22:15;;;;;;;6.80;3.07;;;12.00;97.50;;;;;;5064250;28;20454;-68
2022/09/17 00:24:42;;;;;;;5.23;2.33;;;12.00;97.50;;;;;;5064517;28;20458;-68
2022/09/17 00:27:09;;;;;;;7.57;2.90;;;12.00;97.50;;;;;;5064482;28;20459;-67
2022/09/17 00:29:36;;;;;;;6.70;3.07;;;12.00;97.60;;;;;;5064622;28;20462;-68
2022/09/17 00:32:02;;;;;;;12.20;3.03;;;12.00;97.60;;;;;;5064125;28;20451;-68
2022/09/17 00:34:30;;;;;;;7.87;2.87;;;12.00;97.60;;;;;;5063300;28;20486;-68
2022/09/17 00:36:57;;;;;;;6.93;2.90;;;12.00;97.60;;;;;;5064017;28;20449;-68
2022/09/17 00:39:24;;;;;;;7.47;2.70;;;12.00;97.70;;;;;;5063026;28;20452;-67
2022/09/17 00:41:51;;;;;;;8.83;3.00;;;12.00;97.70;;;;;;5063436;28;20439;-68
2022/09/17 00:44:43;;;;;;;5.60;2.50;;;11.90;97.80;;;;;;5063822;28;20468;-68
2022/09/17 00:47:16;;;;;;;4.63;2.07;;;11.90;97.80;;;;;;5063923;28;20451;-67
2022/09/17 00:49:46;;;;;;;6.10;2.30;;;11.90;97.90;;;;;;5063994;28;20447;-68
2022/09/17 00:52:15;;;;;;;8.77;2.60;;;11.90;97.90;;;;;;5064229;28;20449;-68
2022/09/17 00:54:55;;;;;;;3.90;1.97;;;11.90;97.80;;;;;;5063962;28;20487;-67
2022/09/17 00:57:22;;;;;;;9.23;2.50;;;11.90;97.90;;;;;;5064612;28;20936;-67
2022/09/17 00:59:49;;;;;;;7.40;2.30;;;11.90;98.30;;;;;;5063226;28;20448;-67
2022/09/17 01:02:16;;;;;;;7.27;2.53;;;11.90;97.90;;;;;;5063414;28;20457;-68
2022/09/17 01:04:44;;;;;;;6.33;2.23;;;11.90;97.80;;;;;;5063693;28;20431;-68
2022/09/17 01:07:20;;;;;;;6.43;2.20;;;11.90;97.90;;;;;;5063792;28;20452;-67
2022/09/17 01:09:51;;;;;;;6.70;2.00;;;11.80;98.30;;;;;;5064060;28;20855;-68
2022/09/17 01:12:36;;;;;;;4.90;2.07;;;11.80;98.20;;;;;;5063193;28;20435;-68
2022/09/17 01:15:15;;;;;;;9.37;2.50;;;11.80;98.10;;;;;;5062528;28;20542;-67
2022/09/17 01:17:48;;;;;;;8.20;2.30;;;11.80;98.30;;;;;;5063228;28;20440;-67
2022/09/17 01:20:44;;;;;;;10.47;2.30;;;11.80;98.30;;;;;;5062703;28;20982;-67
2022/09/17 01:23:38;;;;;;;5.87;2.07;;;11.80;98.30;;;;;;5062736;28;20480;-67
2022/09/17 01:26:34;;;;;;;8.73;2.93;;;11.90;98.20;;;;;;5063093;28;20433;-67
2022/09/17 01:29:09;;;;;;;9.37;3.13;;;11.90;98.10;;;;;;5061694;28;20493;-69
2022/09/17 01:31:42;;;;;;;8.77;2.90;;;11.80;98.10;;;;;;5061443;28;20445;-67
2022/09/17 01:34:20;;;;;;;7.40;2.67;;;11.80;98.20;;;;;;5063855;28;20478;-68
2022/09/17 01:37:02;;;;;;;7.40;3.13;;;11.80;98.20;;;;;;5063080;28;20496;-67
2022/09/17 01:39:38;;;;;;;5.80;2.27;;;11.80;98.10;;;;;;5061448;28;20939;-67
2022/09/17 01:42:13;;;;;;;5.77;2.30;;;11.80;98.20;;;;;;5061918;28;20433;-67
2022/09/17 01:44:45;;;;;;;6.40;3.50;;;11.80;98.20;;;;;;5061399;28;20432;-68
2022/09/17 01:47:19;;;;;;;8.73;2.50;;;11.80;98.40;;;;;;5061637;28;20440;-68
2022/09/17 01:49:47;;;;;;;4.70;2.70;;;11.80;98.40;;;;;;5061855;28;20531;-67
2022/09/17 01:52:16;;;;;;;7.23;2.27;;;11.80;98.20;;;;;;5061847;28;20915;-68
2022/09/17 01:54:48;;;;;;;11.10;2.83;;;11.80;98.20;;;;;;5061177;28;20480;-68
2022/09/17 01:57:18;;;;;;;3.90;2.20;;;11.80;98.20;;;;;;5061698;28;20445;-68
2022/09/17 01:59:50;;;;;;;9.73;3.13;;;11.90;98.30;;;;;;5062581;28;20449;-67
2022/09/17 02:02:30;;;;;;;7.00;3.20;;;11.90;98.20;;;;;;5061786;28;20444;-68
2022/09/17 02:05:01;;;;;;;5.23;2.57;;;11.90;98.20;;;;;;5060965;28;20504;-68
2022/09/17 02:07:30;;;;;;;6.07;2.80;;;11.90;98.20;;;;;;5060468;28;20912;-68
2022/09/17 02:10:02;;;;;;;6.17;2.70;;;11.90;98.40;;;;;;5061459;28;20963;-67
2022/09/17 02:12:33;;;;;;;7.30;2.60;;;11.90;98.50;;;;;;5061395;28;20471;-67
2022/09/17 02:15:05;;;;;;;7.43;2.80;;;11.90;98.50;;;;;;5062476;28;20467;-68
2022/09/17 02:17:39;;;;;;;4.83;2.17;;;11.90;98.60;;;;;;5061718;28;20440;-68
2022/09/17 02:20:07;;;;;;;4.43;2.50;;;11.90;98.50;;;;;;5061124;28;20473;-68
2022/09/17 02:22:39;;;;;;;4.50;3.13;;;11.90;98.40;;;;;;5061099;28;21054;-68
2022/09/17 02:25:14;;;;;;;10.00;3.00;;;11.90;98.40;;;;;;5061902;28;20436;-67
2022/09/17 02:27:52;;;;;;;5.47;2.50;;;12.00;98.30;;;;;;5061401;28;20429;-67
2022/09/17 02:30:19;;;;;;;8.90;2.20;;;12.00;98.30;;;;;;5058525;28;20436;-67
2022/09/17 02:32:48;;;;;;;10.23;2.50;;;11.90;98.20;;;;;;5058322;28;20530;-68
2022/09/17 02:35:15;;;;;;;9.90;2.67;;;11.90;98.40;;;;;;5058361;28;20487;-68
2022/09/17 02:37:43;;;;;;;6.43;2.40;;;11.90;98.30;;;;;;5060718;28;20447;-68
2022/09/17 02:40:11;;;;;;;14.97;2.67;;;11.90;98.40;;;;;;5060766;28;20451;-67
2022/09/17 02:42:55;;;;;;;6.37;2.17;;;11.90;98.50;;;;;;5061947;28;20465;-68
2022/09/17 02:45:40;;;;;;;7.70;2.47;;;11.90;98.50;;;;;;5062658;28;20427;-68
2022/09/17 02:48:33;;;;;;;7.93;2.10;;;11.90;98.60;;;;;;5061858;28;20438;-67
2022/09/17 02:51:22;;;;;;;5.17;2.40;;;11.90;98.60;;;;;;5062287;28;20431;-67
2022/09/17 02:53:57;;;;;;;24.43;3.27;;;11.90;98.60;;;;;;5061911;28;20469;-68
2022/09/17 02:56:36;;;;;;;7.80;2.63;;;11.90;98.50;;;;;;5062750;28;20468;-67
2022/09/17 02:59:12;;;;;;;11.07;3.27;;;12.00;98.40;;;;;;5063194;28;20437;-67
2022/09/17 03:01:43;;;;;;;7.00;2.60;;;12.00;98.60;;;;;;5062571;28;20439;-67
2022/09/17 03:04:15;;;;;;;8.90;2.47;;;12.00;98.40;;;;;;5062634;28;20594;-68
2022/09/17 03:06:43;;;;;;;7.10;2.40;;;12.00;98.40;;;;;;5059872;28;20502;-68
2022/09/17 03:09:10;;;;;;;10.20;2.50;;;12.00;98.60;;;;;;5065896;28;20532;-67
2022/09/17 03:11:37;;;;;;;9.20;2.53;;;12.00;98.40;;;;;;5065234;28;20987;-68
2022/09/17 03:14:04;;;;;;;7.13;2.17;;;12.00;98.30;;;;;;5065466;28;20459;-68
2022/09/17 03:16:31;;;;;;;11.03;2.60;;;12.00;98.30;;;;;;5064685;28;20906;-68
2022/09/17 03:18:58;;;;;;;15.13;2.80;;;12.00;98.40;;;;;;5064356;28;20984;-68
2022/09/17 03:21:26;;;;;;;9.37;2.33;;;12.00;98.40;;;;;;5063764;28;20465;-68
2022/09/17 03:23:53;;;;;;;5.47;2.07;;;12.00;98.40;;;;;;5064057;28;20472;-68
2022/09/17 03:26:19;;;;;;;7.17;2.63;;;12.00;98.50;;;;;;5064329;28;20495;-67
2022/09/17 03:28:46;;;;;;;14.67;2.87;;;11.90;98.40;;;;;;5064156;28;20793;-68
2022/09/17 03:31:13;;;;;;;5.57;2.03;;;12.00;98.60;;;;;;5064148;28;20455;-67
2022/09/17 03:33:40;;;;;;;12.60;2.57;;;12.00;98.50;;;;;;5064618;28;20857;-67
2022/09/17 03:36:06;;;;;;;7.30;2.20;;;12.00;98.30;;;;;;5064958;28;20490;-67
2022/09/17 03:38:37;;;;;;;4.40;1.87;;;12.00;98.30;;;;;;5064293;28;20954;-67
2022/09/17 03:41:06;;;;;;;9.40;2.20;;;12.00;98.10;;;;;;5064551;28;20481;-67
2022/09/17 03:43:33;;;;;;;5.97;2.13;;;12.00;98.00;;;;;;5063660;28;20463;-68
2022/09/17 03:46:00;;;;;;;8.20;2.07;;;12.00;97.90;;;;;;5063327;28;20444;-68
2022/09/17 03:48:28;;;;;;;3.67;1.77;;;12.00;97.90;;;;;;5062832;28;20448;-67
2022/09/17 03:50:55;;;;;;;8.63;2.13;;;11.90;97.90;;;;;;5063559;28;20455;-67
2022/09/17 03:53:22;;;;;;;6.60;3.03;;;11.90;98.00;;;;;;5062809;28;20502;-67
2022/09/17 03:55:50;;;;;;;6.10;2.93;;;11.90;97.90;;;;;;5063371;28;20490;-68
2022/09/17 03:58:17;;;;;;;4.80;1.63;;;11.90;97.80;;;;;;5062081;28;20458;-67
2022/09/17 04:00:44;;;;;;;8.47;2.90;;;11.90;97.80;;;;;;5062003;28;20452;-67
2022/09/17 04:03:11;;;;;;;7.20;2.00;;;11.90;97.80;;;;;;5061494;28;20463;-68
2022/09/17 04:05:38;;;;;;;7.03;1.70;;;11.90;97.90;;;;;;5062450;28;20962;-68
2022/09/17 04:08:05;;;;;;;8.60;2.40;;;11.90;97.80;;;;;;5061060;28;20456;-68
2022/09/17 04:10:31;;;;;;;6.47;1.83;;;11.90;97.90;;;;;;5061232;28;20445;-67
2022/09/17 04:12:59;;;;;;;6.17;2.40;;;11.90;97.90;;;;;;5060929;28;20472;-67
2022/09/17 04:15:26;;;;;;;4.73;1.53;;;11.90;97.90;;;;;;5060931;28;20491;-68
2022/09/17 04:17:56;;;;;;;9.77;2.30;;;11.80;97.90;;;;;;5060835;28;20459;-68
2022/09/17 04:20:23;;;;;;;8.90;2.23;;;11.70;97.80;;;;;;5060226;28;20499;-68
2022/09/17 04:22:50;;;;;;;7.77;2.40;;;11.70;97.90;;;;;;5060172;28;20487;-68
2022/09/17 04:25:17;;;;;;;8.97;2.47;;;11.70;98.20;;;;;;5059525;28;20435;-68
2022/09/17 04:27:44;;;;;;;4.40;1.70;;;11.70;98.10;;;;;;5060140;28;20459;-67
2022/09/17 04:30:14;;;;;;;8.63;2.60;;;11.70;98.10;;;;;;5059617;28;20471;-67
2022/09/17 04:32:40;;;;;;;7.90;2.20;;;11.70;98.20;;;;;;5059192;28;20478;-67
2022/09/17 04:35:08;;;;;;;8.93;2.10;;;11.70;98.40;;;;;;5059501;28;20589;-67
2022/09/17 04:37:35;;;;;;;7.27;2.50;;;11.80;98.30;;;;;;5061699;28;20471;-67
2022/09/17 04:40:02;;;;;;;7.63;1.43;;;11.70;98.40;;;;;;5059449;28;20456;-67
2022/09/17 04:42:29;;;;;;;6.27;1.77;;;11.70;98.30;;;;;;5059992;28;20468;-67
2022/09/17 04:44:56;;;;;;;8.40;2.10;;;11.80;98.30;;;;;;5060425;28;20823;-67
2022/09/17 04:47:24;;;;;;;7.70;2.20;;;11.80;98.20;;;;;;5059055;28;20460;-67
2022/09/17 04:49:51;;;;;;;7.23;1.57;;;11.80;98.40;;;;;;5059754;28;20815;-67
2022/09/17 04:52:18;;;;;;;5.30;1.30;;;11.80;98.40;;;;;;5059370;28;20451;-68
2022/09/17 04:54:45;;;;;;;6.37;2.10;;;11.80;98.20;;;;;;5058931;28;20443;-67
2022/09/17 04:57:11;;;;;;;5.10;1.60;;;11.80;98.20;;;;;;5059433;28;21019;-67
2022/09/17 04:59:38;;;;;;;11.63;2.10;;;11.80;98.10;;;;;;5059885;28;20474;-67
2022/09/17 05:02:05;;;;;;;8.83;2.17;;;11.90;98.00;;;;;;5059954;28;20453;-67
2022/09/17 05:04:33;;;;;;;6.87;2.20;;;11.80;98.00;;;;;;5060533;28;20455;-67
2022/09/17 05:07:00;;;;;;;3.23;1.47;;;11.80;97.80;;;;;;5060991;28;20534;-68
2022/09/17 05:09:26;;;;;;;11.63;2.60;;;11.80;97.90;;;;;;5060051;28;20468;-66
2022/09/17 05:11:53;;;;;;;11.37;2.10;;;11.80;97.90;;;;;;5059891;28;20437;-67
2022/09/17 05:14:20;;;;;;;7.80;2.20;;;11.80;98.10;;;;;;5059863;28;20475;-67
2022/09/17 05:16:47;;;;;;;5.37;1.43;;;11.70;98.20;;;;;;5060044;28;20479;-67
2022/09/17 05:19:13;;;;;;;8.70;2.00;;;11.70;98.20;;;;;;5063415;28;20502;-67
2022/09/17 05:21:42;;;;;;;5.77;1.73;;;11.80;98.20;;;;;;5060618;28;20456;-67
2022/09/17 05:24:08;;;;;;;3.63;1.80;;;11.80;98.30;;;;;;5059082;28;20473;-67
2022/09/17 05:26:35;;;;;;;8.40;1.97;;;11.80;98.40;;;;;;5060196;28;20441;-67
2022/09/17 05:29:02;;;;;;;7.00;1.73;;;11.80;98.50;;;;;;5060270;28;20455;-67
2022/09/17 05:31:28;;;;;;;5.90;2.40;;;11.80;98.70;;;;;;5059916;28;20459;-66
2022/09/17 05:33:55;;;;;;;9.73;2.67;;;11.80;98.90;;;;;;5061785;28;20477;-67
2022/09/17 05:36:22;;;;;;;11.20;3.60;;;11.90;98.90;;;;;;5063063;28;20486;-67
2022/09/17 05:38:50;;;;;;;4.73;1.70;;;11.90;98.80;;;;;;5065752;28;20451;-67
2022/09/17 05:41:16;;;;;;;6.70;1.40;;;12.00;98.80;;;;;;5064611;28;20452;-68
2022/09/17 05:43:43;;;;;;;5.80;1.50;;;12.10;98.50;;;;;;5064904;28;20474;-67
2022/09/17 05:46:11;;;;;;;6.17;1.50;;;12.10;98.60;;;;;;5061989;28;20527;-66
2022/09/17 05:48:37;;;;;;;7.63;1.77;;;12.10;98.60;;;;;;5061900;28;20453;-68
2022/09/17 05:51:05;;;;;;;7.50;1.77;;;12.20;98.60;;;;;;5061679;28;20464;-67
2022/09/17 05:53:31;;;;;;;7.70;1.90;;;12.20;98.40;;;;;;5061312;28;20472;-68
2022/09/17 05:56:00;;;;;;;3.27;1.60;;;12.30;98.30;;;;;;5060876;28;20549;-67
2022/09/17 05:58:28;;;;;;;5.90;1.37;;;12.40;98.30;;;;;;5061842;28;20459;-67
2022/09/17 06:00:54;;;;;;;6.60;2.20;;;12.40;98.10;;;;;;5061929;28;20477;-67
2022/09/17 06:03:22;;;;;;;5.83;1.60;;;12.50;97.80;;;;;;5058436;28;20467;-67
2022/09/17 06:05:54;;;;;;;6.73;1.20;;;12.60;97.50;;;;;;5058563;28;20466;-68
2022/09/17 06:08:21;;;;;;;7.00;1.87;;;12.60;97.20;;;;;;5056757;28;20459;-67
2022/09/17 06:10:48;;;;;;;4.83;1.20;;;12.60;96.80;;;;;;5057687;28;20456;-68
2022/09/17 06:13:17;;;;;;;9.80;1.77;;;12.60;96.50;;;;;;5057106;28;21013;-67
2022/09/17 06:15:48;;;;;;;7.70;1.80;;;12.60;96.40;;;;;;5056273;28;20572;-66
2022/09/17 06:18:15;;;;;;;7.40;1.27;;;12.60;96.40;;;;;;5057255;28;20437;-68
2022/09/17 06:20:42;;;;;;;9.03;2.33;;;12.60;96.20;;;;;;5059927;28;20433;-68
2022/09/17 06:23:09;;;;;;;9.07;1.70;;;12.50;96.00;;;;;;5066706;28;20464;-67
2022/09/17 06:25:35;;;;;;;6.87;1.60;;;12.50;96.10;;;;;;5065767;28;20433;-67
2022/09/17 06:28:03;;;;;;;5.23;1.37;;;12.50;96.00;;;;;;5063632;28;20472;-67
2022/09/17 06:30:31;;;;;;;5.10;1.80;;;12.50;96.10;;;;;;5057157;28;20442;-67
2022/09/17 06:33:00;;;;;;;7.47;2.00;;;12.40;96.40;;;;;;5058188;28;20465;-68
2022/09/17 06:35:26;;;;;;;9.40;2.30;;;12.40;96.60;;;;;;5056956;28;20478;-68
2022/09/17 06:37:53;;;;;;;8.30;1.90;;;12.40;96.60;;;;;;5057629;28;20456;-68
2022/09/17 06:40:22;;;;;;;10.80;2.20;;;12.40;96.70;;;;;;5057842;28;20453;-68
2022/09/17 06:42:49;;;;;;;5.83;2.17;;;12.50;96.80;;;;;;5056648;28;20483;-68
2022/09/17 06:45:16;;;;;;;7.80;1.60;;;12.50;96.60;;;;;;5057180;28;20449;-68
2022/09/17 06:47:44;;;;;;;8.43;1.70;;;12.50;96.70;;;;;;5058890;28;20872;-68
2022/09/17 06:50:11;;;;;;;13.03;2.60;;;12.60;96.70;;;;;;5058720;28;20443;-68
2022/09/17 06:52:38;;;;;;;11.77;2.60;;;12.70;96.80;;;;;;5057774;28;20469;-68
2022/09/17 06:55:05;;;;;;;5.40;2.40;;;12.80;96.80;;;;;;5057540;28;20452;-67
2022/09/17 06:57:32;;;;;;;11.17;2.00;;;12.80;96.50;;;;;;5058294;28;20858;-68
2022/09/17 06:59:59;;;;;;;8.57;1.70;;;12.90;96.60;;;;;;5057432;28;20449;-67
2022/09/17 07:02:25;;;;;;;6.80;1.67;;;12.90;95.90;;;;;;5076293;28;20484;-68
2022/09/17 07:04:54;;;;;;;10.87;1.67;;;12.90;95.80;;;;;;5077338;28;20447;-69
2022/09/17 07:07:20;;;;;;;8.67;2.43;;;13.00;96.30;;;;;;5079279;28;20452;-69
2022/09/17 07:09:47;;;;;;;5.13;1.67;;;13.00;96.30;;;;;;5078562;28;20448;-69
2022/09/17 07:12:14;;;;;;;10.50;2.07;;;13.10;96.00;;;;;;5078663;28;20481;-69
2022/09/17 07:14:41;;;;;;;5.77;1.60;;;13.10;95.50;;;;;;5077981;28;20457;-69
2022/09/17 07:17:07;;;;;;;5.87;1.43;;;13.10;95.70;;;;;;5076687;28;20843;-69
2022/09/17 07:19:34;;;;;;;7.47;1.53;;;13.20;95.70;;;;;;5077357;28;20496;-69
2022/09/17 07:22:02;;;;;;;4.50;1.47;;;13.20;95.30;;;;;;5078554;28;20460;-68
2022/09/17 07:24:29;;;;;;;7.10;1.50;;;13.30;95.20;;;;;;5077992;28;20957;-69
2022/09/17 07:26:56;;;;;;;7.50;2.27;;;13.40;95.20;;;;;;5075664;28;20434;-69
2022/09/17 07:29:25;;;;;;;6.63;1.47;;;13.50;94.40;;;;;;5075156;28;20460;-69
2022/09/17 07:31:51;;;;;;;5.77;1.47;;;13.60;93.70;;;;;;5075638;28;20454;-69
2022/09/17 07:34:18;;;;;;;6.13;1.50;;;13.70;93.70;;;;;;5073954;28;20470;-70
2022/09/17 07:36:45;;;;;;;8.33;1.60;;;13.90;93.20;;;;;;5073922;28;20487;-70
2022/09/17 07:39:13;;;;;;;10.37;3.90;;;14.10;92.70;;;;;;5073439;28;20449;-70
2022/09/17 07:41:40;;;;;;;6.53;1.73;;;14.20;92.70;;;;;;5062522;28;20464;-69
2022/09/17 07:44:08;;;;;;;4.97;2.47;;;14.30;91.80;;;;;;5069845;28;21012;-69
2022/09/17 07:46:36;;;;;;;12.80;1.83;;;14.40;92.10;;;;;;5071362;28;20475;-69
2022/09/17 07:49:02;;;;;;;8.53;1.57;;;14.40;90.70;;;;;;5062686;28;20452;-69
2022/09/17 07:51:29;;;;;;;7.10;1.40;;;14.50;91.40;;;;;;5077861;28;20481;-70
2022/09/17 07:53:57;;;;;;;8.17;1.77;;;14.50;90.50;;;;;;5077512;28;20467;-70
2022/09/17 07:56:27;;;;;;;7.20;1.53;;;14.50;90.00;;;;;;5075257;28;20468;-70
2022/09/17 07:58:55;;;;;;;3.03;1.13;;;14.50;90.20;;;;;;5062775;28;20461;-69
2022/09/17 08:01:21;;;;;;;3.90;1.10;;;14.40;90.30;;;;;;5057855;28;20471;-70
2022/09/17 08:03:50;;;;;;;11.50;1.87;;;14.50;90.00;;;;;;5068647;28;20631;-70
2022/09/17 08:06:19;;;;;;;8.83;1.87;;;14.40;91.20;;;;;;5067891;28;20974;-70
2022/09/17 08:08:46;;;;;;;9.33;1.30;;;14.60;90.90;;;;;;5057735;28;20505;-70
2022/09/17 08:11:15;;;;;;;11.90;2.53;;;14.70;90.80;;;;;;5069595;28;20470;-70
2022/09/17 08:13:47;;;;;;;4.23;1.40;;;14.90;90.40;;;;;;5061134;28;21017;-70
2022/09/17 08:16:14;;;;;;;4.27;1.17;;;15.10;88.80;;;;;;5065851;28;20460;-70
2022/09/17 08:18:42;;;;;;;5.00;1.73;;;15.30;89.10;;;;;;5058337;28;20485;-70
2022/09/17 08:21:12;;;;;;;8.67;1.60;;;15.40;87.00;;;;;;5066432;28;20468;-69
2022/09/17 08:23:40;;;;;;;8.70;1.73;;;15.50;85.90;;;;;;5073719;28;20514;-70
2022/09/17 08:26:11;;;;;;;3.30;1.67;;;15.60;84.30;;;;;;5062875;28;20480;-69
2022/09/17 08:28:38;;;;;;;4.17;1.10;;;15.70;83.60;;;;;;5059666;28;20462;-70
2022/09/17 08:31:08;;;;;;;5.00;1.47;;;15.80;81.40;;;;;;5071722;28;20467;-70
2022/09/17 08:33:37;;;;;;;9.50;1.60;;;15.80;81.10;;;;;;5067041;28;20821;-70
2022/09/17 08:36:04;;;;;;;5.90;1.37;;;15.80;82.10;;;;;;5076399;28;20455;-71
2022/09/17 08:38:32;;;;;;;7.67;1.53;;;15.70;81.80;;;;;;5057589;28;20445;-70
2022/09/17 08:41:07;;;;;;;6.03;1.40;;;15.70;82.40;;;;;;5069518;28;20558;-70
2022/09/17 08:43:40;;;;;;;6.57;1.60;;;15.80;82.10;;;;;;5067435;28;20570;-70
2022/09/17 08:46:10;;;;;;;5.20;1.33;;;16.00;80.70;;;;;;5064367;28;20460;-70
2022/09/17 08:48:41;;;;;;;5.10;1.40;;;16.00;78.80;;;;;;5066164;28;20856;-70
2022/09/17 08:51:17;;;;;;;9.63;1.50;;;16.00;80.10;;;;;;5060871;28;20460;-70
2022/09/17 08:53:57;;;;;;;7.83;1.40;;;16.10;80.80;;;;;;5068127;28;20483;-70
2022/09/17 08:56:26;;;;;;;7.43;1.63;;;16.20;80.20;;;;;;5069625;28;20462;-70
2022/09/17 08:59:15;;;;;;;6.03;1.80;;;16.30;77.50;;;;;;5062850;28;20469;-70
2022/09/17 09:01:52;;;;;;;7.00;1.50;;;16.30;77.30;;;;;;5061041;28;20457;-70
2022/09/17 09:05:00;;;;;;;8.23;1.30;;;16.20;76.90;;;;;;5074422;28;20876;-70
2022/09/17 09:07:30;;;;;;;3.60;1.10;;;16.20;77.00;;;;;;5025164;28;20560;-71
2022/09/17 09:10:06;;;;;;;2.97;0.93;;;16.30;77.90;;;;;;5070846;28;20492;-69
2022/09/17 09:12:36;;;;;;;7.40;1.30;;;16.30;77.80;;;;;;5070139;28;20873;-70
2022/09/17 09:15:07;;;;;;;8.77;1.87;;;16.40;78.40;;;;;;5066534;28;20994;-70
2022/09/17 09:17:41;;;;;;;5.23;1.30;;;16.50;76.30;;;;;;5060177;28;20476;-71
2022/09/17 09:20:16;;;;;;;5.20;1.50;;;16.60;75.00;;;;;;5056083;28;20476;-71
2022/09/17 09:22:47;;;;;;;6.43;1.17;;;16.70;75.10;;;;;;5063398;28;20487;-71
2022/09/17 09:25:21;;;;;;;4.47;1.83;;;16.80;74.00;;;;;;5068041;28;20950;-70
2022/09/17 09:28:07;;;;;;;2.17;0.90;;;17.10;72.10;;;;;;5079901;28;20452;-70
2022/09/17 09:30:49;;;;;;;4.00;1.00;;;17.10;69.10;;;;;;5075055;28;20975;-72
2022/09/17 09:33:24;;;;;;;2.33;0.97;;;17.10;69.80;;;;;;5057194;28;20484;-70
2022/09/17 09:35:51;;;;;;;8.13;1.33;;;17.20;71.00;;;;;;5068313;28;20543;-71
2022/09/17 09:38:29;;;;;;;7.63;1.70;;;17.20;69.00;;;;;;5074149;28;20484;-71
2022/09/17 09:41:08;;;;;;;2.90;1.10;;;17.30;71.60;;;;;;5074477;28;20500;-71
2022/09/17 09:43:41;;;;;;;3.83;0.90;;;17.40;70.50;;;;;;5074938;28;20480;-71
2022/09/17 09:46:32;;;;;;;8.03;1.27;;;17.50;67.20;;;;;;5074929;28;20519;-72
2022/09/17 09:49:14;;;;;;;5.20;0.80;;;17.70;66.20;;;;;;5064436;28;20536;-72
2022/09/17 09:51:52;;;;;;;7.60;1.30;;;17.90;68.60;;;;;;5074724;28;20436;-72
2022/09/17 09:54:33;;;;;;;3.73;1.00;;;18.10;64.90;;;;;;5074540;28;20541;-72
2022/09/17 09:57:06;;;;;;;5.50;1.60;;;18.30;62.30;;;;;;5074315;28;20473;-72
2022/09/17 09:59:34;;;;;;;5.73;1.03;;;18.50;62.10;;;;;;5074447;28;20437;-72
2022/09/17 10:02:02;;;;;;;3.10;1.47;;;18.30;61.90;;;;;;5074403;28;20479;-72
2022/09/17 10:04:31;;;;;;;5.53;0.90;;;18.10;64.20;;;;;;5074304;28;20434;-72
2022/09/17 10:07:03;;;;;;;6.37;1.17;;;18.10;66.00;;;;;;5074487;28;20476;-71
2022/09/17 10:09:31;;;;;;;4.70;1.00;;;18.40;63.70;;;;;;5074731;28;20908;-72
2022/09/17 10:12:03;;;;;;;3.07;1.20;;;18.60;61.30;;;;;;5074739;28;20445;-72
2022/09/17 10:14:32;;;;;;;7.87;1.30;;;18.70;61.90;;;;;;5074689;28;20437;-75
2022/09/17 10:17:14;;;;;;;3.50;1.03;;;18.80;60.50;;;;;;5074447;28;21023;-72
2022/09/17 10:19:43;;;;;;;3.53;0.70;;;18.40;59.20;;;;;;5074002;28;20460;-72
2022/09/17 10:22:30;;;;;;;1.90;0.83;;;18.30;60.40;;;;;;5074070;28;20451;-72
2022/09/17 10:24:59;;;;;;;4.03;0.90;;;18.50;61.90;;;;;;5073970;28;20433;-72
2022/09/17 10:27:27;;;;;;;4.93;1.27;;;18.80;59.90;;;;;;5073891;28;20445;-71
2022/09/17 10:30:03;;;;;;;4.07;1.60;;;18.90;58.20;;;;;;5073902;28;20441;-71
2022/09/17 10:32:30;;;;;;;3.67;1.00;;;19.10;58.80;;;;;;5074062;28;20472;-71
2022/09/17 10:35:04;;;;;;;3.00;1.43;;;19.40;58.40;;;;;;5074208;28;20445;-71
2022/09/17 10:37:34;;;;;;;3.43;0.90;;;19.90;56.00;;;;;;5074056;28;20472;-71
2022/09/17 10:40:02;;;;;;;6.07;1.17;;;20.40;55.60;;;;;;5074176;28;20441;-71
2022/09/17 10:42:29;;;;;;;4.20;1.17;;;20.50;53.10;;;;;;5073705;28;20465;-71
2022/09/17 10:44:58;;;;;;;5.67;0.90;;;20.20;54.40;;;;;;5073853;28;20448;-71
2022/09/17 10:47:28;;;;;;;2.53;0.90;;;20.20;55.70;;;;;;5073746;28;20803;-71
2022/09/17 10:50:00;;;;;;;4.10;0.80;;;20.30;55.70;;;;;;5074350;28;20474;-71
2022/09/17 10:52:31;;;;;;;2.60;1.07;;;20.20;54.00;;;;;;5073869;28;20596;-71
2022/09/17 10:55:15;;;;;;;4.67;0.90;;;20.60;53.50;;;;;;5073728;28;20778;-71
2022/09/17 10:58:02;;;;;;;4.23;1.20;;;20.80;51.90;;;;;;5073769;28;20469;-71
2022/09/17 11:00:39;;;;;;;3.13;1.10;;;20.90;51.00;;;;;;5073815;28;20951;-71
2022/09/17 11:03:48;;;;;;;6.63;1.20;;;21.00;51.50;;;;;;5073506;28;20559;-72
2022/09/17 11:06:35;;;;;;;7.33;0.90;;;21.10;51.90;;;;;;5044022;28;20464;-72
2022/09/17 11:09:14;;;;;;;5.70;1.00;;;20.90;51.00;;;;;;5073731;28;20433;-71
2022/09/17 11:11:54;;;;;;;6.13;1.03;;;20.60;51.50;;;;;;5073404;28;20808;-71
2022/09/17 11:14:40;;;;;;;2.90;0.80;;;19.80;55.20;;;;;;5073783;28;20464;-71
2022/09/17 11:17:13;;;;;;;2.33;0.93;;;18.80;57.20;;;;;;5073843;28;20437;-69
2022/09/17 11:19:48;;;;;;;3.53;1.00;;;17.90;64.50;;;;;;5073411;28;20460;-69
2022/09/17 11:22:23;;;;;;;2.10;0.90;;;17.20;70.70;;;;;;5073673;28;20440;-69
2022/09/17 11:25:08;;;;;;;6.13;1.67;;;16.70;74.70;;;;;;5077365;28;20469;-69
2022/09/17 11:27:49;;;;;;;7.53;1.00;;;16.40;78.40;;;;;;5077552;28;20443;-69
2022/09/17 11:30:19;;;;;;;4.00;1.00;;;16.20;81.60;;;;;;5077429;28;20443;-69
2022/09/17 11:33:13;;;;;;;3.93;1.30;;;16.50;84.30;;;;;;5077454;28;20507;-70
2022/09/17 11:35:46;;;;;;;2.93;0.83;;;17.70;81.80;;;;;;5077255;28;20464;-70
2022/09/17 11:38:21;;;;;;;2.70;0.83;;;19.00;75.20;;;;;;5078361;28;20473;-70
2022/09/17 11:40:57;;;;;;;2.67;0.67;;;20.70;69.70;;;;;;5077225;28;20433;-70
2022/09/17 11:43:27;;;;;;;3.93;0.97;;;22.40;60.00;;;;;;5077040;28;20495;-71
2022/09/17 11:46:00;;;;;;;4.90;1.33;;;23.50;54.00;;;;;;5076955;28;20452;-71
2022/09/17 11:48:34;;;;;;;3.27;1.30;;;23.60;51.70;;;;;;5076822;28;20425;-70
2022/09/17 11:51:07;;;;;;;2.53;0.97;;;23.40;52.10;;;;;;5076603;28;20494;-71
2022/09/17 11:53:39;;;;;;;2.10;0.80;;;23.60;52.20;;;;;;5076331;28;20476;-71
2022/09/17 11:56:15;;;;;;;4.53;1.50;;;23.20;51.60;;;;;;5076894;28;20440;-71
2022/09/17 11:58:46;;;;;;;4.30;1.67;;;22.40;52.40;;;;;;5076775;28;20472;-71
2022/09/17 12:01:18;;;;;;;4.90;1.27;;;21.70;55.20;;;;;;5076747;28;20436;-71
2022/09/17 12:03:52;;;;;;;4.77;1.17;;;21.50;58.60;;;;;;5076113;28;20987;-71
2022/09/17 12:06:23;;;;;;;3.50;1.23;;;22.30;54.70;;;;;;5076300;28;20433;-71
2022/09/17 12:08:57;;;;;;;2.77;1.07;;;23.40;54.00;;;;;;5076585;28;20425;-71
2022/09/17 12:11:32;;;;;;;1.87;1.00;;;24.00;50.50;;;;;;5076221;28;20940;-71
2022/09/17 12:14:05;;;;;;;1.60;0.70;;;24.30;49.70;;;;;;5076383;28;20471;-71
2022/09/17 12:16:35;;;;;;;3.70;1.07;;;23.80;48.80;;;;;;5076125;28;20437;-70
2022/09/17 12:19:09;;;;;;;4.33;1.17;;;23.10;49.90;;;;;;5076171;28;21008;-71
2022/09/17 12:21:39;;;;;;;3.70;0.80;;;22.30;51.30;;;;;;5076306;28;20444;-71
2022/09/17 12:24:15;;;;;;;3.23;1.30;;;21.50;52.80;;;;;;5077182;28;20468;-72
2022/09/17 12:27:01;;;;;;;1.77;0.67;;;21.40;55.60;;;;;;5076780;28;20436;-72
2022/09/17 12:29:52;;;;;;;2.13;0.90;;;21.90;55.60;;;;;;5077031;28;20428;-71
2022/09/17 12:32:34;;;;;;;4.10;1.33;;;22.50;53.70;;;;;;5075566;28;20457;-72
2022/09/17 12:35:07;;;;;;;3.90;0.60;;;22.40;50.40;;;;;;5074808;28;20433;-72
2022/09/17 12:37:40;;;;;;;3.53;0.60;;;21.80;51.30;;;;;;5076117;28;20433;-72
2022/09/17 12:40:17;;;;;;;4.03;0.80;;;21.10;53.10;;;;;;5076776;28;20798;-71
2022/09/17 12:43:12;;;;;;;2.50;0.67;;;20.50;53.60;;;;;;5076073;28;20472;-71
2022/09/17 12:45:58;;;;;;;0.90;0.57;;;20.60;55.50;;;;;;5075795;28;20452;-72
2022/09/17 12:48:51;;;;;;;1.60;0.50;;;21.10;54.10;;;;;;5076115;28;20425;-72
2022/09/17 12:51:40;;;;;;;2.77;0.80;;;21.10;53.70;;;;;;5069686;28;20453;-72
2022/09/17 12:54:20;;;;;;;2.30;0.77;;;21.00;54.10;;;;;;5072956;28;20491;-72
2022/09/17 12:56:57;;;;;;;3.80;0.90;;;22.10;53.70;;;;;;5075805;28;20536;-71
2022/09/17 12:59:29;;;;;;;2.47;0.60;;;22.90;49.50;;;;;;5076584;28;20476;-72
2022/09/17 13:02:00;;;;;;;1.27;0.47;;;23.00;47.60;;;;;;5075865;28;20441;-72
2022/09/17 13:04:59;;;;;;;4.83;0.70;;;23.00;48.20;;;;;;5075765;28;20476;-70
2022/09/17 13:07:53;;;;;;;2.10;0.63;;;22.60;49.50;;;;;;5049665;28;20460;-70